Time;durP1;ratioP1;P1;durP2;ratioP2;P2;SDS_P1;SDS_P2;PMS_P1;PMS_P2;Temp;Humidity;BMP_temperature;BMP_pressure;BME280_temperature;BME280_humidity;BME280_pressure;Samples;Min_cycle;Max_cycle;Signal;HPM_P1;HPM_P2
2023/05/09 00:00:28;;;;;;;19.60;15.45;;;16.90;99.90;;;;;;5091833;28;20218;-48
2023/05/09 00:02:54;;;;;;;25.20;16.83;;;16.90;99.90;;;;;;5091981;28;20616;-49
2023/05/09 00:05:20;;;;;;;24.45;15.52;;;16.90;99.90;;;;;;5091968;28;20294;-49
2023/05/09 00:07:46;;;;;;;25.63;17.13;;;16.90;99.90;;;;;;5091667;28;20219;-49
2023/05/09 00:10:12;;;;;;;30.90;16.05;;;16.90;99.90;;;;;;5091355;28;20955;-48
2023/05/09 00:12:37;;;;;;;26.30;16.70;;;16.90;99.90;;;;;;5091976;28;20690;-49
2023/05/09 00:15:06;;;;;;;26.42;17.17;;;;;;;;;;5091670;28;20684;-48
2023/05/09 00:17:33;;;;;;;27.38;17.63;;;16.90;99.90;;;;;;5091814;28;20169;-48
2023/05/09 00:20:00;;;;;;;28.92;17.30;;;16.80;99.90;;;;;;5091586;28;20572;-48
2023/05/09 00:22:26;;;;;;;23.70;17.42;;;16.80;99.90;;;;;;5091500;28;20224;-48
2023/05/09 00:24:52;;;;;;;25.67;17.30;;;16.80;99.90;;;;;;5091981;28;20589;-49
2023/05/09 00:27:17;;;;;;;26.15;18.30;;;16.80;99.90;;;;;;5091851;28;20236;-48
2023/05/09 00:29:43;;;;;;;29.42;17.33;;;16.80;99.90;;;;;;5091484;28;20248;-49
2023/05/09 00:32:09;;;;;;;27.77;18.25;;;16.80;99.90;;;;;;5091659;28;20165;-49
2023/05/09 00:34:35;;;;;;;27.75;17.55;;;16.80;99.90;;;;;;5091481;28;20207;-48
2023/05/09 00:37:00;;;;;;;28.15;18.65;;;16.70;99.90;;;;;;5091428;28;20173;-48
2023/05/09 00:39:26;;;;;;;28.45;18.38;;;16.70;99.90;;;;;;5091439;28;20634;-49
2023/05/09 00:41:51;;;;;;;28.95;17.77;;;16.70;99.90;;;;;;5091671;28;20248;-48
2023/05/09 00:44:17;;;;;;;27.52;18.95;;;16.70;99.90;;;;;;5091762;28;20173;-48
2023/05/09 00:46:43;;;;;;;28.85;18.50;;;16.70;99.90;;;;;;5091376;28;20165;-48
2023/05/09 00:49:09;;;;;;;26.17;17.83;;;16.70;99.90;;;;;;5091377;28;20169;-48
2023/05/09 00:51:36;;;;;;;26.77;18.45;;;16.70;99.90;;;;;;5091590;28;20618;-48
2023/05/09 00:54:01;;;;;;;28.55;18.17;;;16.60;99.90;;;;;;5091527;28;20197;-48
2023/05/09 00:56:27;;;;;;;27.52;18.65;;;16.60;99.90;;;;;;5091233;28;20645;-48
2023/05/09 00:58:54;;;;;;;26.60;18.00;;;16.60;99.90;;;;;;5091227;28;20647;-48
2023/05/09 01:01:20;;;;;;;27.75;18.83;;;16.60;99.90;;;;;;5093596;28;20280;-48
2023/05/09 01:03:46;;;;;;;28.65;18.27;;;16.60;99.90;;;;;;5094997;28;20303;-48
2023/05/09 01:06:38;;;;;;;29.58;18.55;;;16.70;99.90;;;;;;5094807;28;20671;-48
2023/05/09 01:09:25;;;;;;;28.50;18.25;;;16.60;99.90;;;;;;5094885;28;20172;-48
2023/05/09 01:12:24;;;;;;;30.15;19.00;;;16.60;99.90;;;;;;5095230;28;20170;-48
2023/05/09 01:15:00;;;;;;;26.20;18.20;;;16.60;99.90;;;;;;5093883;28;20169;-48
2023/05/09 01:17:35;;;;;;;28.58;19.20;;;16.60;99.90;;;;;;5094811;28;20622;-49
2023/05/09 01:20:28;;;;;;;28.85;19.20;;;16.60;99.90;;;;;;5094774;28;20260;-48
2023/05/09 01:23:44;;;;;;;27.48;19.08;;;16.60;99.90;;;;;;5094639;28;20566;-48
2023/05/09 01:26:24;;;;;;;31.70;19.30;;;16.60;99.90;;;;;;5094659;28;20157;-49
2023/05/09 01:29:09;;;;;;;33.83;19.65;;;16.60;99.90;;;;;;5095188;28;20195;-49
2023/05/09 01:31:40;;;;;;;30.30;20.00;;;16.70;99.90;;;;;;5094521;28;20210;-49
2023/05/09 01:34:08;;;;;;;35.80;21.80;;;16.60;99.90;;;;;;5094462;28;20192;-49
2023/05/09 01:36:38;;;;;;;33.53;18.92;;;16.60;99.90;;;;;;5094457;28;20169;-48
2023/05/09 01:39:06;;;;;;;30.88;19.55;;;16.60;99.90;;;;;;5094423;28;20161;-49
2023/05/09 01:41:36;;;;;;;32.63;20.05;;;16.60;99.90;;;;;;5094339;28;20197;-49
2023/05/09 01:44:05;;;;;;;28.48;19.95;;;16.60;99.90;;;;;;5094245;28;20165;-48
2023/05/09 01:46:32;;;;;;;30.02;19.75;;;16.70;99.90;;;;;;5094378;28;20161;-49
2023/05/09 01:48:59;;;;;;;29.50;19.67;;;16.60;99.90;;;;;;5094162;28;20584;-48
2023/05/09 01:51:25;;;;;;;32.08;20.80;;;16.70;99.90;;;;;;5094185;28;20161;-48
2023/05/09 01:53:53;;;;;;;30.40;21.05;;;16.60;99.90;;;;;;5094574;28;20168;-49
2023/05/09 01:56:20;;;;;;;28.02;18.83;;;16.60;99.90;;;;;;5094506;28;20169;-49
2023/05/09 01:58:48;;;;;;;29.48;19.50;;;16.60;99.90;;;;;;5094301;28;20260;-49
2023/05/09 02:01:14;;;;;;;31.30;19.88;;;16.60;99.90;;;;;;5094217;28;20212;-48
2023/05/09 02:03:41;;;;;;;29.23;20.40;;;16.60;99.90;;;;;;5093901;28;20165;-48
2023/05/09 02:06:08;;;;;;;29.55;21.35;;;16.50;99.90;;;;;;5093768;28;20224;-48
2023/05/09 02:08:34;;;;;;;30.67;20.63;;;16.60;99.90;;;;;;5093853;28;20653;-48
2023/05/09 02:11:00;;;;;;;30.45;21.00;;;16.60;99.90;;;;;;5093785;28;20174;-48
2023/05/09 02:13:25;;;;;;;27.65;20.40;;;16.60;99.90;;;;;;5093474;28;20169;-49
2023/05/09 02:15:52;;;;;;;34.40;20.98;;;16.60;99.90;;;;;;5094129;28;20626;-48
2023/05/09 02:18:17;;;;;;;31.25;20.75;;;16.70;99.90;;;;;;5094051;28;20215;-48
2023/05/09 02:20:43;;;;;;;31.77;21.77;;;16.70;99.90;;;;;;5093618;28;20166;-48
2023/05/09 02:23:08;;;;;;;35.63;20.90;;;16.70;99.90;;;;;;5093592;28;20184;-48
2023/05/09 02:25:34;;;;;;;30.42;20.38;;;16.70;99.90;;;;;;5093481;28;20162;-48
2023/05/09 02:28:01;;;;;;;27.60;20.08;;;16.70;99.90;;;;;;5093472;28;20208;-49
2023/05/09 02:30:37;;;;;;;28.23;19.75;;;16.60;99.90;;;;;;5093396;28;20214;-49
2023/05/09 02:33:07;;;;;;;29.98;20.50;;;16.70;99.90;;;;;;5093413;28;20161;-48
2023/05/09 02:35:34;;;;;;;34.25;20.52;;;16.70;99.90;;;;;;5093375;28;20595;-48
2023/05/09 02:37:59;;;;;;;35.80;21.08;;;16.70;99.90;;;;;;5093271;28;20548;-48
2023/05/09 02:40:26;;;;;;;34.28;20.60;;;16.70;99.90;;;;;;5093165;28;20173;-48
2023/05/09 02:42:52;;;;;;;34.80;19.58;;;16.60;99.90;;;;;;5092995;28;20565;-48
2023/05/09 02:45:17;;;;;;;33.45;20.33;;;16.70;99.90;;;;;;5093628;28;20165;-49
2023/05/09 02:47:43;;;;;;;29.95;20.30;;;16.70;99.90;;;;;;5093079;28;20222;-49
2023/05/09 02:50:09;;;;;;;30.92;22.17;;;16.60;99.90;;;;;;5093076;28;20169;-49
2023/05/09 02:52:35;;;;;;;30.10;20.02;;;16.60;99.90;;;;;;5093026;28;20242;-48
2023/05/09 02:55:01;;;;;;;30.08;19.63;;;16.60;99.90;;;;;;5092980;28;20188;-48
2023/05/09 02:57:26;;;;;;;28.10;20.25;;;16.60;99.90;;;;;;5092826;28;20245;-49
2023/05/09 02:59:52;;;;;;;29.70;19.55;;;16.60;99.90;;;;;;5092914;28;20252;-48
2023/05/09 03:02:17;;;;;;;32.08;20.25;;;16.70;99.90;;;;;;5093184;28;20229;-48
2023/05/09 03:04:43;;;;;;;33.10;20.55;;;16.70;99.90;;;;;;5092843;28;20197;-48
2023/05/09 03:07:08;;;;;;;35.33;21.25;;;16.70;99.90;;;;;;5092690;28;20169;-48
2023/05/09 03:09:34;;;;;;;30.45;20.30;;;16.70;99.90;;;;;;5093063;28;20214;-48
2023/05/09 03:12:00;;;;;;;27.08;19.80;;;16.70;99.90;;;;;;5092659;28;20169;-48
2023/05/09 03:14:25;;;;;;;28.42;20.27;;;16.70;99.90;;;;;;5092593;28;20174;-48
2023/05/09 03:16:51;;;;;;;30.63;19.63;;;16.60;99.90;;;;;;5093026;28;20170;-48
2023/05/09 03:19:16;;;;;;;30.60;19.73;;;16.70;99.90;;;;;;5092524;28;20166;-48
2023/05/09 03:21:42;;;;;;;28.73;20.00;;;16.60;99.90;;;;;;5092316;28;20193;-48
2023/05/09 03:24:09;;;;;;;30.20;19.88;;;16.70;99.90;;;;;;5091637;28;20173;-48
2023/05/09 03:26:34;;;;;;;30.13;20.10;;;16.70;99.90;;;;;;5092330;28;20630;-48
2023/05/09 03:29:00;;;;;;;32.22;19.73;;;16.60;99.90;;;;;;5092300;28;20180;-48
2023/05/09 03:31:26;;;;;;;29.33;20.45;;;16.70;99.90;;;;;;5092350;28;20169;-48
2023/05/09 03:33:52;;;;;;;30.25;20.25;;;16.60;99.90;;;;;;5092368;28;20173;-48
2023/05/09 03:36:17;;;;;;;31.63;20.40;;;16.60;99.90;;;;;;5092633;28;20166;-48
2023/05/09 03:38:43;;;;;;;27.92;20.05;;;16.60;99.90;;;;;;5092128;28;20161;-48
2023/05/09 03:41:09;;;;;;;30.77;20.25;;;16.60;99.90;;;;;;5092054;28;20266;-48
2023/05/09 03:43:34;;;;;;;29.73;20.17;;;16.70;99.90;;;;;;5092299;28;20177;-48
2023/05/09 03:46:00;;;;;;;33.05;20.35;;;16.60;99.90;;;;;;5091782;28;20169;-48
2023/05/09 03:48:26;;;;;;;32.20;20.67;;;;;;;;;;5092206;28;20164;-48
2023/05/09 03:50:51;;;;;;;29.33;20.95;;;16.70;99.90;;;;;;5092005;28;20166;-48
2023/05/09 03:53:19;;;;;;;31.38;20.15;;;;;;;;;;5091845;28;20520;-48
2023/05/09 03:55:44;;;;;;;27.10;20.55;;;16.60;99.90;;;;;;5091588;28;20176;-48
2023/05/09 03:58:11;;;;;;;24.23;19.17;;;16.70;99.90;;;;;;5092027;28;20166;-48
2023/05/09 04:00:37;;;;;;;24.58;19.27;;;16.60;99.90;;;;;;5092047;28;20219;-48
2023/05/09 04:03:03;;;;;;;23.60;18.65;;;16.60;99.90;;;;;;5091752;28;20204;-48
2023/05/09 04:05:29;;;;;;;28.17;20.55;;;;;;;;;;5091487;28;20205;-47
2023/05/09 04:07:55;;;;;;;25.75;20.10;;;16.60;99.90;;;;;;5091879;28;20201;-47
2023/05/09 04:10:20;;;;;;;25.60;19.63;;;16.60;99.90;;;;;;5092100;28;20169;-48
2023/05/09 04:12:46;;;;;;;25.08;19.08;;;16.60;99.90;;;;;;5092317;28;20222;-47
2023/05/09 04:15:11;;;;;;;25.50;19.63;;;16.60;99.90;;;;;;5091807;28;20172;-48
2023/05/09 04:17:37;;;;;;;26.45;19.27;;;16.60;99.90;;;;;;5091578;28;20173;-48
2023/05/09 04:20:03;;;;;;;24.08;19.25;;;16.60;99.90;;;;;;5091774;28;20249;-47
2023/05/09 04:22:28;;;;;;;26.67;18.92;;;16.60;99.90;;;;;;5091549;28;20565;-48
2023/05/09 04:24:55;;;;;;;24.25;19.45;;;16.60;99.90;;;;;;5091488;28;20166;-47
2023/05/09 04:27:20;;;;;;;26.92;21.08;;;16.60;99.90;;;;;;5091811;28;20266;-47
2023/05/09 04:29:48;;;;;;;21.77;18.20;;;16.60;99.90;;;;;;5091893;28;20185;-47
2023/05/09 04:32:13;;;;;;;20.10;18.02;;;16.50;99.90;;;;;;5091506;28;20591;-47
2023/05/09 04:34:39;;;;;;;27.30;18.55;;;16.50;99.90;;;;;;5091496;28;20248;-47
2023/05/09 04:37:05;;;;;;;21.75;18.83;;;16.50;99.90;;;;;;5094622;28;20208;-47
2023/05/09 04:39:31;;;;;;;25.20;18.98;;;;;;;;;;5093863;28;20657;-47
2023/05/09 04:41:56;;;;;;;23.17;18.42;;;16.50;99.90;;;;;;5094599;28;20217;-47
2023/05/09 04:44:23;;;;;;;21.92;18.13;;;16.50;99.90;;;;;;5094217;28;20189;-47
2023/05/09 04:46:49;;;;;;;22.48;18.02;;;16.50;99.90;;;;;;5095905;28;20248;-47
2023/05/09 04:49:15;;;;;;;22.02;18.27;;;16.50;99.90;;;;;;5095388;28;20234;-48
2023/05/09 04:51:40;;;;;;;21.20;18.92;;;16.50;99.90;;;;;;5095152;28;20209;-48
2023/05/09 04:54:06;;;;;;;22.10;18.58;;;16.50;99.90;;;;;;5095445;28;20169;-48
2023/05/09 04:56:31;;;;;;;24.23;18.17;;;16.50;99.90;;;;;;5095110;28;20530;-48
2023/05/09 04:58:57;;;;;;;24.02;19.42;;;16.50;99.90;;;;;;5095160;28;20513;-48
2023/05/09 05:01:22;;;;;;;22.75;18.40;;;16.40;99.90;;;;;;5095192;28;20205;-48
2023/05/09 05:03:48;;;;;;;24.02;18.50;;;16.50;99.90;;;;;;5095342;28;20242;-48
2023/05/09 05:06:14;;;;;;;23.75;19.08;;;;;;;;;;5094884;28;20228;-48
2023/05/09 05:08:39;;;;;;;28.02;18.20;;;16.60;99.90;;;;;;5094817;28;20184;-48
2023/05/09 05:11:05;;;;;;;28.52;18.10;;;16.70;99.90;;;;;;5094833;28;20197;-48
2023/05/09 05:13:31;;;;;;;24.50;19.42;;;16.70;99.90;;;;;;5094930;28;20630;-48
2023/05/09 05:15:57;;;;;;;26.15;19.65;;;16.80;99.90;;;;;;5095042;28;20172;-48
2023/05/09 05:18:23;;;;;;;22.15;18.73;;;16.80;99.90;;;;;;5095162;28;20597;-48
2023/05/09 05:20:48;;;;;;;21.48;18.98;;;16.70;99.90;;;;;;5095095;28;20201;-48
2023/05/09 05:23:14;;;;;;;24.30;20.13;;;16.90;99.90;;;;;;5094724;28;20185;-48
2023/05/09 05:25:39;;;;;;;22.85;19.50;;;16.90;99.90;;;;;;5094893;28;20170;-48
2023/05/09 05:28:05;;;;;;;23.45;19.08;;;17.10;99.90;;;;;;5094865;28;20169;-48
2023/05/09 05:30:31;;;;;;;21.08;17.88;;;17.10;99.90;;;;;;5094484;28;20507;-48
2023/05/09 05:32:56;;;;;;;23.23;18.85;;;17.30;99.90;;;;;;5094509;28;20572;-48
2023/05/09 05:35:23;;;;;;;22.45;18.15;;;17.40;99.90;;;;;;5094355;28;20157;-48
2023/05/09 05:37:49;;;;;;;25.50;18.80;;;17.40;99.90;;;;;;5094713;28;20177;-48
2023/05/09 05:40:14;;;;;;;20.83;17.83;;;17.70;99.90;;;;;;5094302;28;20165;-48
2023/05/09 05:42:40;;;;;;;21.85;17.55;;;17.80;99.90;;;;;;5094130;28;20209;-48
2023/05/09 05:45:06;;;;;;;22.00;17.65;;;17.90;99.90;;;;;;5094257;28;20165;-48
2023/05/09 05:47:33;;;;;;;21.50;17.98;;;17.90;99.90;;;;;;5093000;28;20169;-48
2023/05/09 05:49:59;;;;;;;19.55;16.83;;;18.00;99.90;;;;;;5094188;28;20165;-48
2023/05/09 05:52:26;;;;;;;23.98;17.27;;;18.00;99.90;;;;;;5094081;28;20161;-48
2023/05/09 05:54:52;;;;;;;22.50;17.58;;;18.00;99.90;;;;;;5094190;28;20157;-48
2023/05/09 05:57:18;;;;;;;20.60;16.80;;;;;;;;;;5092809;28;20169;-48
2023/05/09 05:59:46;;;;;;;20.60;16.73;;;18.00;99.90;;;;;;5092745;28;20176;-48
2023/05/09 06:02:12;;;;;;;22.42;16.50;;;18.00;99.90;;;;;;5093006;28;20204;-48
2023/05/09 06:04:37;;;;;;;18.27;16.27;;;17.90;99.90;;;;;;5093776;28;20165;-48
2023/05/09 06:07:03;;;;;;;19.83;16.27;;;17.80;99.90;;;;;;5093729;28;20176;-47
2023/05/09 06:09:28;;;;;;;22.02;16.00;;;17.90;99.90;;;;;;5093681;28;20169;-48
2023/05/09 06:11:54;;;;;;;19.27;15.65;;;17.80;99.90;;;;;;5093705;28;20166;-48
2023/05/09 06:14:19;;;;;;;19.33;15.82;;;17.90;99.90;;;;;;5094221;28;20657;-48
2023/05/09 06:16:45;;;;;;;20.75;15.32;;;18.00;99.90;;;;;;5093903;28;20165;-48
2023/05/09 06:19:11;;;;;;;16.65;14.02;;;;;;;;;;5092453;28;20538;-48
2023/05/09 06:21:36;;;;;;;16.63;14.85;;;18.20;99.90;;;;;;5093445;28;20282;-48
2023/05/09 06:24:02;;;;;;;18.73;14.38;;;18.20;99.90;;;;;;5093549;28;20165;-48
2023/05/09 06:26:28;;;;;;;18.10;14.70;;;18.30;99.90;;;;;;5093381;28;20185;-48
2023/05/09 06:28:54;;;;;;;16.55;14.73;;;18.50;99.90;;;;;;5093359;28;20654;-48
2023/05/09 06:31:20;;;;;;;18.55;13.75;;;;;;;;;;5093487;28;20242;-48
2023/05/09 06:33:46;;;;;;;16.88;15.05;;;18.60;99.90;;;;;;5092377;28;20173;-48
2023/05/09 06:36:12;;;;;;;15.80;14.20;;;18.50;99.90;;;;;;5093296;28;20153;-48
2023/05/09 06:38:37;;;;;;;16.13;13.30;;;18.40;99.90;;;;;;5093237;28;20638;-48
2023/05/09 06:41:03;;;;;;;15.65;13.85;;;18.50;99.90;;;;;;5093131;28;20166;-48
2023/05/09 06:43:28;;;;;;;16.90;13.57;;;18.40;99.90;;;;;;5093100;28;20180;-48
2023/05/09 06:45:54;;;;;;;15.05;13.00;;;18.60;99.90;;;;;;5093068;28;20169;-48
2023/05/09 06:48:19;;;;;;;14.38;12.45;;;18.50;99.90;;;;;;5092135;28;20169;-48
2023/05/09 06:50:45;;;;;;;13.93;11.65;;;18.60;99.90;;;;;;5093544;28;20166;-48
2023/05/09 06:53:10;;;;;;;13.88;12.45;;;18.60;99.90;;;;;;5092991;28;20173;-48
2023/05/09 06:55:36;;;;;;;17.50;11.50;;;18.70;99.90;;;;;;5092952;28;20337;-48
2023/05/09 06:58:02;;;;;;;13.00;11.50;;;18.50;99.90;;;;;;5092833;28;20165;-48
2023/05/09 07:00:28;;;;;;;12.18;10.88;;;18.80;99.90;;;;;;5092577;28;20172;-48
2023/05/09 07:02:54;;;;;;;12.35;11.10;;;;;;;;;;5092988;28;20208;-48
2023/05/09 07:05:19;;;;;;;12.82;10.60;;;18.80;99.90;;;;;;5092929;28;20716;-48
2023/05/09 07:07:45;;;;;;;11.55;10.27;;;18.90;99.90;;;;;;5092601;28;20170;-48
2023/05/09 07:10:11;;;;;;;11.93;9.68;;;;;;;;;;5092631;28;20176;-48
2023/05/09 07:12:37;;;;;;;12.60;10.27;;;19.00;99.90;;;;;;5092523;28;20654;-48
2023/05/09 07:15:05;;;;;;;12.82;10.13;;;19.20;99.90;;;;;;5092501;28;20197;-47
2023/05/09 07:17:30;;;;;;;12.40;10.63;;;19.30;99.90;;;;;;5092697;28;20176;-47
2023/05/09 07:19:56;;;;;;;11.85;8.55;;;19.40;99.90;;;;;;5092509;28;20166;-47
2023/05/09 07:22:22;;;;;;;10.05;8.48;;;19.20;99.90;;;;;;5092689;28;20211;-48
2023/05/09 07:24:47;;;;;;;11.95;8.27;;;19.40;99.90;;;;;;5092896;28;20694;-48
2023/05/09 07:27:13;;;;;;;7.93;7.13;;;;;;;;;;5092608;28;20169;-48
2023/05/09 07:29:39;;;;;;;8.25;6.70;;;19.30;99.90;;;;;;5092299;28;20619;-48
2023/05/09 07:32:05;;;;;;;8.15;7.35;;;19.20;99.90;;;;;;5092268;28;20172;-48
2023/05/09 07:34:31;;;;;;;8.48;7.18;;;19.30;99.90;;;;;;5092502;28;20177;-48
2023/05/09 07:36:57;;;;;;;10.27;7.60;;;19.40;99.90;;;;;;5090888;28;20660;-48
2023/05/09 07:39:23;;;;;;;8.70;7.32;;;19.50;99.90;;;;;;5092449;28;20161;-47
2023/05/09 07:41:48;;;;;;;8.93;5.85;;;19.60;99.90;;;;;;5092471;28;20197;-48
2023/05/09 07:44:14;;;;;;;11.82;6.40;;;19.60;99.90;;;;;;5092078;28;20626;-48
2023/05/09 07:46:40;;;;;;;9.02;6.10;;;;;;;;;;5092107;28;20623;-48
2023/05/09 07:49:07;;;;;;;8.30;6.50;;;19.50;99.90;;;;;;5092379;28;20165;-48
2023/05/09 07:51:32;;;;;;;7.50;5.55;;;19.70;99.90;;;;;;5091899;28;20257;-48
2023/05/09 07:53:58;;;;;;;6.78;5.35;;;19.70;99.90;;;;;;5091906;28;20197;-48
2023/05/09 07:56:25;;;;;;;5.50;4.97;;;19.80;99.90;;;;;;5091958;28;20618;-48
2023/05/09 07:58:51;;;;;;;7.30;5.22;;;20.10;99.90;;;;;;5091804;28;20161;-48
2023/05/09 08:01:16;;;;;;;7.18;5.30;;;20.30;99.90;;;;;;5092157;28;20199;-48
2023/05/09 08:03:42;;;;;;;6.50;5.32;;;20.40;99.90;;;;;;5091690;28;20176;-48
2023/05/09 08:06:07;;;;;;;7.18;5.45;;;20.30;99.90;;;;;;5091468;28;20217;-48
2023/05/09 08:08:33;;;;;;;6.40;5.05;;;;;;;;;;5091772;28;20214;-48
2023/05/09 08:10:59;;;;;;;6.25;4.90;;;20.40;99.90;;;;;;5091126;28;20169;-48
2023/05/09 08:13:24;;;;;;;6.85;5.43;;;20.30;99.90;;;;;;5091662;28;20165;-48
2023/05/09 08:15:50;;;;;;;6.10;5.43;;;20.10;99.90;;;;;;5090301;28;20169;-48
2023/05/09 08:18:16;;;;;;;6.38;4.80;;;20.30;99.90;;;;;;5092272;28;20173;-48
2023/05/09 08:20:42;;;;;;;5.28;4.70;;;20.50;99.90;;;;;;5091561;28;20165;-48
2023/05/09 08:23:07;;;;;;;6.00;4.13;;;20.50;99.90;;;;;;5091463;28;20245;-48
2023/05/09 08:25:33;;;;;;;5.82;4.20;;;20.70;99.90;;;;;;5091661;28;20168;-48
2023/05/09 08:27:59;;;;;;;7.75;3.97;;;20.90;99.90;;;;;;5091540;28;20169;-48
2023/05/09 08:30:24;;;;;;;4.18;3.72;;;21.10;99.90;;;;;;5091483;28;20187;-48
2023/05/09 08:32:50;;;;;;;4.03;3.53;;;;;;;;;;5091574;28;20161;-48
2023/05/09 08:35:16;;;;;;;4.03;3.22;;;21.20;99.90;;;;;;5091914;28;20649;-48
2023/05/09 08:37:41;;;;;;;6.75;3.15;;;21.10;99.90;;;;;;5091463;28;20240;-48
2023/05/09 08:40:08;;;;;;;4.18;2.75;;;21.30;99.90;;;;;;5090100;28;20207;-48
2023/05/09 08:42:37;;;;;;;4.05;3.08;;;21.20;99.90;;;;;;5091733;28;20262;-48
2023/05/09 08:45:10;;;;;;;3.58;2.55;;;21.30;99.90;;;;;;5091693;28;20214;-48
2023/05/09 08:47:40;;;;;;;2.88;2.63;;;21.30;99.90;;;;;;5091400;28;20256;-48
2023/05/09 08:50:07;;;;;;;5.85;2.70;;;21.40;99.90;;;;;;5091569;28;20201;-48
2023/05/09 08:52:33;;;;;;;9.75;2.72;;;21.50;99.90;;;;;;5091395;28;20215;-48
2023/05/09 08:55:05;;;;;;;4.95;2.58;;;21.50;99.90;;;;;;5091374;28;20165;-48
2023/05/09 08:57:34;;;;;;;3.38;2.67;;;21.70;99.90;;;;;;5091278;28;20645;-48
2023/05/09 09:00:00;;;;;;;6.55;2.92;;;21.80;99.90;;;;;;5091372;28;20534;-48
2023/05/09 09:02:25;;;;;;;3.22;2.67;;;21.80;99.90;;;;;;5091231;28;20205;-48
2023/05/09 09:04:53;;;;;;;2.63;2.42;;;21.80;99.90;;;;;;5091047;28;20217;-48
2023/05/09 09:07:20;;;;;;;3.50;2.50;;;21.70;99.90;;;;;;5091584;28;20630;-48
2023/05/09 09:09:46;;;;;;;5.88;2.83;;;21.80;99.90;;;;;;5091572;28;20652;-48
2023/05/09 09:12:14;;;;;;;4.18;2.42;;;21.90;99.90;;;;;;5091044;28;20194;-48
2023/05/09 09:14:45;;;;;;;2.70;2.50;;;22.00;99.90;;;;;;5091091;28;20165;-48
2023/05/09 09:17:15;;;;;;;4.93;2.90;;;22.20;99.90;;;;;;5091091;28;20173;-48
2023/05/09 09:19:43;;;;;;;4.28;2.80;;;21.90;99.90;;;;;;5091067;28;20165;-48
2023/05/09 09:22:14;;;;;;;5.43;2.42;;;22.00;99.90;;;;;;5092425;28;20611;-48
2023/05/09 09:24:40;;;;;;;2.60;2.33;;;22.00;99.90;;;;;;5094754;28;20626;-48
2023/05/09 09:27:06;;;;;;;2.40;2.20;;;22.00;99.90;;;;;;5095007;28;20175;-48
2023/05/09 09:29:32;;;;;;;4.95;2.58;;;21.90;99.90;;;;;;5094600;28;20165;-48
2023/05/09 09:32:01;;;;;;;4.05;2.85;;;22.00;99.90;;;;;;5094520;28;20578;-48
2023/05/09 09:34:27;;;;;;;3.17;2.60;;;22.20;99.90;;;;;;5094609;28;20172;-48
2023/05/09 09:36:52;;;;;;;3.25;2.80;;;22.30;99.90;;;;;;5094536;28;20169;-48
2023/05/09 09:39:18;;;;;;;2.80;2.45;;;22.40;99.90;;;;;;5094763;28;20739;-48
2023/05/09 09:41:44;;;;;;;3.58;2.38;;;22.30;99.90;;;;;;5094286;28;20692;-48
2023/05/09 09:44:18;;;;;;;5.13;2.90;;;22.20;99.90;;;;;;5094271;28;20246;-48
2023/05/09 09:46:51;;;;;;;6.43;2.88;;;22.20;99.90;;;;;;5094247;28;20169;-48
2023/05/09 09:49:21;;;;;;;6.90;3.33;;;22.60;99.90;;;;;;5094590;28;20191;-48
2023/05/09 09:51:51;;;;;;;2.97;2.70;;;22.80;99.90;;;;;;5094634;28;20161;-48
2023/05/09 09:54:17;;;;;;;5.20;2.97;;;22.90;99.90;;;;;;5094656;28;20164;-48
2023/05/09 09:56:48;;;;;;;3.72;2.42;;;22.90;99.90;;;;;;5094037;28;20165;-48
2023/05/09 09:59:17;;;;;;;5.07;3.22;;;22.70;99.90;;;;;;5093988;28;20218;-48
2023/05/09 10:01:56;;;;;;;4.05;2.72;;;22.60;99.90;;;;;;5093862;28;20203;-48
2023/05/09 10:04:23;;;;;;;4.72;2.70;;;22.60;99.90;;;;;;5094018;28;20165;-48
2023/05/09 10:06:56;;;;;;;4.28;3.28;;;22.60;99.90;;;;;;5094089;28;20213;-48
2023/05/09 10:09:23;;;;;;;4.85;2.60;;;22.60;99.90;;;;;;5093897;28;20165;-47
2023/05/09 10:11:53;;;;;;;3.35;2.60;;;22.40;99.90;;;;;;5094216;28;20169;-47
2023/05/09 10:14:21;;;;;;;4.05;3.15;;;22.20;99.90;;;;;;5094439;28;20177;-47
2023/05/09 10:16:48;;;;;;;6.25;2.97;;;22.20;99.90;;;;;;5094367;28;20173;-47
2023/05/09 10:19:22;;;;;;;5.38;3.17;;;22.40;99.90;;;;;;5093915;28;20533;-47
2023/05/09 10:21:54;;;;;;;3.17;2.90;;;22.50;99.90;;;;;;5094007;28;20196;-47
2023/05/09 10:24:37;;;;;;;3.97;3.00;;;22.60;99.90;;;;;;5093580;28;20197;-47
2023/05/09 10:27:08;;;;;;;5.05;3.53;;;22.40;99.90;;;;;;5093402;28;20165;-47
2023/05/09 10:29:36;;;;;;;4.68;3.80;;;22.70;99.90;;;;;;5093380;28;20200;-47
2023/05/09 10:32:10;;;;;;;11.65;3.42;;;22.80;99.90;;;;;;5092173;28;20741;-47
2023/05/09 10:34:39;;;;;;;5.90;2.83;;;22.80;99.90;;;;;;5092811;28;20248;-48
2023/05/09 10:37:06;;;;;;;4.30;3.25;;;23.40;99.90;;;;;;5093310;28;20222;-47
2023/05/09 10:39:32;;;;;;;4.95;3.40;;;23.70;99.90;;;;;;5093306;28;20156;-48
2023/05/09 10:41:59;;;;;;;4.47;2.95;;;23.80;99.90;;;;;;5093176;28;20208;-48
2023/05/09 10:44:25;;;;;;;4.65;2.90;;;23.60;99.90;;;;;;5093158;28;20533;-47
2023/05/09 10:46:52;;;;;;;5.03;2.72;;;23.10;99.90;;;;;;5093156;28;20165;-47
2023/05/09 10:49:18;;;;;;;2.85;2.58;;;23.00;99.90;;;;;;5093765;28;20226;-47
2023/05/09 10:51:44;;;;;;;3.33;2.92;;;22.80;99.90;;;;;;5093063;28;20165;-47
2023/05/09 10:54:14;;;;;;;3.83;2.63;;;22.80;99.90;;;;;;5093116;28;20200;-47
2023/05/09 10:56:40;;;;;;;3.40;3.10;;;22.80;99.90;;;;;;5093190;28;20173;-47
2023/05/09 10:59:05;;;;;;;4.35;2.47;;;22.90;99.90;;;;;;5092762;28;20191;-48
2023/05/09 11:01:35;;;;;;;3.33;2.78;;;23.10;99.90;;;;;;5092756;28;20192;-47
2023/05/09 11:04:11;;;;;;;3.83;2.58;;;23.10;99.90;;;;;;5093035;28;20199;-47
2023/05/09 11:06:40;;;;;;;3.45;2.95;;;23.20;99.90;;;;;;5092698;28;20645;-47
2023/05/09 11:09:27;;;;;;;2.85;2.65;;;22.90;99.90;;;;;;5092655;28;20536;-47
2023/05/09 11:12:04;;;;;;;5.05;2.55;;;23.10;99.90;;;;;;5092571;28;20164;-47
2023/05/09 11:14:36;;;;;;;3.20;2.33;;;23.10;99.90;;;;;;5092455;28;20173;-47
2023/05/09 11:17:06;;;;;;;6.88;2.60;;;23.10;99.90;;;;;;5092709;28;20217;-48
2023/05/09 11:19:41;;;;;;;4.43;2.45;;;22.80;99.90;;;;;;5092395;28;20173;-47
2023/05/09 11:22:29;;;;;;;4.22;2.70;;;23.20;99.90;;;;;;5092545;28;20261;-47
2023/05/09 11:25:07;;;;;;;4.47;2.75;;;23.20;99.90;;;;;;5092248;28;20655;-47
2023/05/09 11:27:41;;;;;;;8.38;3.03;;;23.00;99.90;;;;;;5092166;28;20168;-47
2023/05/09 11:30:08;;;;;;;5.05;2.63;;;22.60;99.90;;;;;;5092549;28;20183;-47
2023/05/09 11:32:44;;;;;;;4.97;3.05;;;22.40;99.90;;;;;;5092464;28;20214;-47
2023/05/09 11:35:18;;;;;;;3.53;2.78;;;22.30;99.90;;;;;;5092315;28;20537;-47
2023/05/09 11:37:56;;;;;;;4.30;2.63;;;22.40;99.90;;;;;;5092570;28;20161;-47
2023/05/09 11:40:23;;;;;;;4.15;2.78;;;22.30;99.90;;;;;;5092029;28;20165;-47
2023/05/09 11:42:52;;;;;;;4.57;2.80;;;22.20;99.90;;;;;;5092379;28;20215;-47
2023/05/09 11:45:18;;;;;;;4.28;3.03;;;22.20;99.90;;;;;;5091608;28;20165;-47
2023/05/09 11:47:45;;;;;;;4.40;2.92;;;22.50;99.90;;;;;;5091082;28;20687;-47
2023/05/09 11:50:12;;;;;;;3.63;3.13;;;22.70;99.90;;;;;;5091883;28;20164;-47
2023/05/09 11:52:38;;;;;;;5.05;2.33;;;22.90;99.90;;;;;;5092161;28;20183;-47
2023/05/09 11:55:12;;;;;;;3.47;2.17;;;23.10;99.90;;;;;;5092158;28;20179;-47
2023/05/09 11:57:46;;;;;;;4.47;2.30;;;23.40;99.90;;;;;;5091822;28;20210;-47
2023/05/09 12:00:14;;;;;;;4.68;2.30;;;23.70;99.90;;;;;;5092050;28;20168;-47
2023/05/09 12:02:43;;;;;;;4.15;2.72;;;23.70;99.90;;;;;;5091630;28;20685;-47
2023/05/09 12:05:10;;;;;;;4.53;2.50;;;23.50;99.90;;;;;;5091452;28;20208;-47
2023/05/09 12:07:38;;;;;;;2.85;2.45;;;23.40;99.90;;;;;;5091618;28;20217;-47
2023/05/09 12:10:09;;;;;;;6.35;2.60;;;23.30;99.90;;;;;;5091644;28;20642;-47
2023/05/09 12:12:35;;;;;;;4.25;2.47;;;23.40;99.90;;;;;;5090245;28;20216;-47
2023/05/09 12:15:06;;;;;;;2.47;2.20;;;23.40;99.90;;;;;;5090129;28;20168;-48
2023/05/09 12:17:32;;;;;;;4.63;2.58;;;23.10;99.90;;;;;;5090067;28;20169;-47
2023/05/09 12:20:03;;;;;;;4.80;2.50;;;23.00;99.90;;;;;;5089725;28;20184;-46
2023/05/09 12:22:29;;;;;;;3.58;2.60;;;;;;;;;;5089644;28;20568;-47
2023/05/09 12:24:55;;;;;;;6.82;2.80;;;23.20;99.90;;;;;;5089783;28;20168;-47
2023/05/09 12:27:21;;;;;;;3.50;2.67;;;23.30;99.90;;;;;;5088310;28;20175;-48
2023/05/09 12:29:47;;;;;;;4.60;2.15;;;23.30;99.90;;;;;;5090008;28;20247;-51
2023/05/09 12:32:14;;;;;;;4.00;2.05;;;23.10;99.90;;;;;;5089710;28;20252;-47
2023/05/09 12:34:43;;;;;;;3.47;2.38;;;23.10;99.90;;;;;;5089797;28;20179;-46
2023/05/09 12:37:17;;;;;;;4.30;2.40;;;23.00;99.90;;;;;;5089872;28;20258;-47
2023/05/09 12:39:58;;;;;;;6.18;2.65;;;23.10;99.90;;;;;;5089748;28;20233;-45
2023/05/09 12:42:27;;;;;;;5.72;2.30;;;22.80;99.90;;;;;;5089416;28;20208;-46